sensor_id;sensor_type;location;lat;lon;timestamp;pressure;altitude;pressure_sealevel;temperature;humidity
60015;BME280;45867;52.480;6.056;2023-06-10T00:02:26;101636.97;;;17.82;100.00
60015;BME280;45867;52.480;6.056;2023-06-10T00:04:51;101626.56;;;17.75;100.00
60015;BME280;45867;52.480;6.056;2023-06-10T00:07:17;101640.22;;;17.79;100.00
60015;BME280;45867;52.480;6.056;2023-06-10T00:09:43;101638.06;;;17.62;100.00
60015;BME280;45867;52.480;6.056;2023-06-10T00:12:09;101640.47;;;17.63;100.00
60015;BME280;45867;52.480;6.056;2023-06-10T00:14:37;101638.72;;;17.53;100.00
60015;BME280;45867;52.480;6.056;2023-06-10T00:17:04;101643.38;;;17.48;100.00
60015;BME280;45867;52.480;6.056;2023-06-10T00:19:29;101639.91;;;17.47;100.00
60015;BME280;45867;52.480;6.056;2023-06-10T00:21:58;101636.50;;;17.42;100.00
60015;BME280;45867;52.480;6.056;2023-06-10T00:24:24;101645.00;;;17.30;100.00
60015;BME280;45867;52.480;6.056;2023-06-10T00:26:50;101640.78;;;17.24;100.00
60015;BME280;45867;52.480;6.056;2023-06-10T00:29:15;101640.00;;;17.23;100.00
60015;BME280;45867;52.480;6.056;2023-06-10T00:31:41;101631.81;;;17.15;100.00
60015;BME280;45867;52.480;6.056;2023-06-10T00:34:07;101638.75;;;17.16;100.00
60015;BME280;45867;52.480;6.056;2023-06-10T00:36:32;101635.38;;;17.10;100.00
60015;BME280;45867;52.480;6.056;2023-06-10T00:38:58;101644.94;;;17.16;100.00
60015;BME280;45867;52.480;6.056;2023-06-10T00:41:24;101636.84;;;17.02;100.00
60015;BME280;45867;52.480;6.056;2023-06-10T00:43:51;101645.66;;;17.03;100.00
60015;BME280;45867;52.480;6.056;2023-06-10T00:46:17;101647.31;;;16.99;100.00
60015;BME280;45867;52.480;6.056;2023-06-10T00:48:44;101641.22;;;16.93;100.00
60015;BME280;45867;52.480;6.056;2023-06-10T00:51:10;101644.69;;;16.94;100.00
60015;BME280;45867;52.480;6.056;2023-06-10T00:53:40;101649.84;;;16.90;100.00
60015;BME280;45867;52.480;6.056;2023-06-10T00:56:06;101644.56;;;16.85;100.00
60015;BME280;45867;52.480;6.056;2023-06-10T00:58:32;101648.31;;;16.84;100.00
60015;BME280;45867;52.480;6.056;2023-06-10T01:00:57;101650.63;;;16.91;100.00
60015;BME280;45867;52.480;6.056;2023-06-10T01:03:23;101639.78;;;16.82;100.00
60015;BME280;45867;52.480;6.056;2023-06-10T01:05:55;101649.19;;;16.79;100.00
60015;BME280;45867;52.480;6.056;2023-06-10T01:11:43;101650.28;;;16.78;100.00
60015;BME280;45867;52.480;6.056;2023-06-10T01:14:09;101651.69;;;16.71;100.00
60015;BME280;45867;52.480;6.056;2023-06-10T01:16:35;101654.94;;;16.68;100.00
60015;BME280;45867;52.480;6.056;2023-06-10T01:19:02;101662.81;;;16.59;100.00
60015;BME280;45867;52.480;6.056;2023-06-10T01:21:27;101656.94;;;16.57;100.00
60015;BME280;45867;52.480;6.056;2023-06-10T01:23:54;101655.31;;;16.56;100.00
60015;BME280;45867;52.480;6.056;2023-06-10T01:26:28;101655.09;;;16.52;100.00
60015;BME280;45867;52.480;6.056;2023-06-10T01:29:02;101648.28;;;16.41;100.00
60015;BME280;45867;52.480;6.056;2023-06-10T01:31:40;101653.72;;;16.55;100.00
60015;BME280;45867;52.480;6.056;2023-06-10T01:34:10;101670.41;;;16.47;100.00
60015;BME280;45867;52.480;6.056;2023-06-10T01:36:37;101663.50;;;16.46;100.00
60015;BME280;45867;52.480;6.056;2023-06-10T01:39:04;101658.47;;;16.39;100.00
60015;BME280;45867;52.480;6.056;2023-06-10T01:41:30;101662.91;;;16.25;100.00
60015;BME280;45867;52.480;6.056;2023-06-10T01:43:56;101662.00;;;16.34;100.00
60015;BME280;45867;52.480;6.056;2023-06-10T01:46:21;101660.97;;;16.30;100.00
60015;BME280;45867;52.480;6.056;2023-06-10T01:48:47;101666.88;;;16.27;100.00
60015;BME280;45867;52.480;6.056;2023-06-10T01:51:12;101660.44;;;16.28;100.00
60015;BME280;45867;52.480;6.056;2023-06-10T01:53:37;101666.31;;;16.30;100.00
60015;BME280;45867;52.480;6.056;2023-06-10T01:56:03;101662.34;;;16.28;100.00
60015;BME280;45867;52.480;6.056;2023-06-10T01:58:28;101659.22;;;16.20;100.00
60015;BME280;45867;52.480;6.056;2023-06-10T02:00:54;101663.75;;;16.20;100.00
60015;BME280;45867;52.480;6.056;2023-06-10T02:03:19;101659.53;;;16.14;100.00
60015;BME280;45867;52.480;6.056;2023-06-10T02:05:44;101671.28;;;16.18;100.00
60015;BME280;45867;52.480;6.056;2023-06-10T02:08:10;101654.75;;;16.11;100.00
60015;BME280;45867;52.480;6.056;2023-06-10T02:10:35;101657.59;;;16.19;100.00
60015;BME280;45867;52.480;6.056;2023-06-10T02:13:00;101662.22;;;16.14;100.00
60015;BME280;45867;52.480;6.056;2023-06-10T02:15:26;101668.13;;;16.11;100.00
60015;BME280;45867;52.480;6.056;2023-06-10T02:17:52;101664.19;;;16.03;100.00
60015;BME280;45867;52.480;6.056;2023-06-10T02:20:17;101665.59;;;15.95;100.00
60015;BME280;45867;52.480;6.056;2023-06-10T02:22:43;101670.47;;;15.88;100.00
60015;BME280;45867;52.480;6.056;2023-06-10T02:25:08;101659.13;;;15.72;100.00
60015;BME280;45867;52.480;6.056;2023-06-10T02:27:34;101674.06;;;15.73;100.00
60015;BME280;45867;52.480;6.056;2023-06-10T02:29:59;101662.53;;;15.78;100.00
60015;BME280;45867;52.480;6.056;2023-06-10T02:32:25;101669.84;;;15.62;100.00
60015;BME280;45867;52.480;6.056;2023-06-10T02:34:50;101658.22;;;15.48;100.00
60015;BME280;45867;52.480;6.056;2023-06-10T02:37:16;101673.03;;;15.64;100.00
60015;BME280;45867;52.480;6.056;2023-06-10T02:39:42;101676.56;;;15.54;100.00
60015;BME280;45867;52.480;6.056;2023-06-10T02:42:07;101663.31;;;15.44;100.00
60015;BME280;45867;52.480;6.056;2023-06-10T02:44:32;101660.13;;;15.42;100.00
60015;BME280;45867;52.480;6.056;2023-06-10T02:46:58;101667.91;;;15.39;100.00
60015;BME280;45867;52.480;6.056;2023-06-10T02:49:23;101662.56;;;15.39;100.00
60015;BME280;45867;52.480;6.056;2023-06-10T02:51:50;101671.38;;;15.34;100.00
60015;BME280;45867;52.480;6.056;2023-06-10T02:54:19;101664.16;;;15.35;100.00
60015;BME280;45867;52.480;6.056;2023-06-10T02:56:45;101661.53;;;15.29;100.00
60015;BME280;45867;52.480;6.056;2023-06-10T02:59:11;101666.78;;;15.45;100.00
60015;BME280;45867;52.480;6.056;2023-06-10T03:01:36;101663.91;;;15.36;100.00
60015;BME280;45867;52.480;6.056;2023-06-10T03:04:04;101666.91;;;15.24;100.00
60015;BME280;45867;52.480;6.056;2023-06-10T03:06:29;101672.25;;;15.24;100.00
60015;BME280;45867;52.480;6.056;2023-06-10T03:08:54;101673.09;;;15.20;100.00
60015;BME280;45867;52.480;6.056;2023-06-10T03:11:20;101666.69;;;15.16;100.00
60015;BME280;45867;52.480;6.056;2023-06-10T03:13:45;101678.34;;;15.30;100.00
60015;BME280;45867;52.480;6.056;2023-06-10T03:16:10;101670.69;;;15.18;100.00
60015;BME280;45867;52.480;6.056;2023-06-10T03:18:37;101668.00;;;15.23;100.00
60015;BME280;45867;52.480;6.056;2023-06-10T03:21:03;101669.88;;;15.18;100.00
60015;BME280;45867;52.480;6.056;2023-06-10T03:23:28;101670.69;;;15.18;100.00
60015;BME280;45867;52.480;6.056;2023-06-10T03:25:54;101670.69;;;15.18;100.00
60015;BME280;45867;52.480;6.056;2023-06-10T03:28:20;101671.78;;;15.17;100.00
60015;BME280;45867;52.480;6.056;2023-06-10T03:30:46;101677.69;;;15.09;100.00
60015;BME280;45867;52.480;6.056;2023-06-10T03:33:12;101673.41;;;15.08;100.00
60015;BME280;45867;52.480;6.056;2023-06-10T03:35:37;101671.81;;;15.07;100.00
60015;BME280;45867;52.480;6.056;2023-06-10T03:38:03;101679.28;;;15.05;100.00
60015;BME280;45867;52.480;6.056;2023-06-10T03:40:28;101671.59;;;14.98;100.00
60015;BME280;45867;52.480;6.056;2023-06-10T03:42:55;101677.41;;;15.10;100.00
60015;BME280;45867;52.480;6.056;2023-06-10T03:45:20;101687.03;;;15.06;100.00
60015;BME280;45867;52.480;6.056;2023-06-10T03:47:46;101690.25;;;15.03;100.00
60015;BME280;45867;52.480;6.056;2023-06-10T03:50:13;101688.94;;;15.01;100.00
60015;BME280;45867;52.480;6.056;2023-06-10T03:52:38;101683.06;;;14.99;100.00
60015;BME280;45867;52.480;6.056;2023-06-10T03:55:04;101688.66;;;14.97;100.00
60015;BME280;45867;52.480;6.056;2023-06-10T03:57:30;101681.72;;;15.01;100.00
60015;BME280;45867;52.480;6.056;2023-06-10T03:59:55;101676.16;;;14.98;100.00
60015;BME280;45867;52.480;6.056;2023-06-10T04:02:21;101679.59;;;14.98;100.00
60015;BME280;45867;52.480;6.056;2023-06-10T04:04:47;101678.25;;;15.01;100.00
60015;BME280;45867;52.480;6.056;2023-06-10T04:07:12;101680.09;;;15.05;100.00
60015;BME280;45867;52.480;6.056;2023-06-10T04:09:39;101686.72;;;15.13;100.00
60015;BME280;45867;52.480;6.056;2023-06-10T04:12:04;101684.59;;;15.15;100.00
60015;BME280;45867;52.480;6.056;2023-06-10T04:14:33;101681.91;;;15.15;100.00
60015;BME280;45867;52.480;6.056;2023-06-10T04:16:59;101678.16;;;15.16;100.00
60015;BME280;45867;52.480;6.056;2023-06-10T04:19:24;101682.16;;;15.19;100.00
60015;BME280;45867;52.480;6.056;2023-06-10T04:21:49;101685.09;;;15.22;100.00
60015;BME280;45867;52.480;6.056;2023-06-10T04:24:15;101687.75;;;15.22;100.00
60015;BME280;45867;52.480;6.056;2023-06-10T04:26:40;101691.22;;;15.23;100.00
60015;BME280;45867;52.480;6.056;2023-06-10T04:29:05;101698.38;;;15.27;100.00
60015;BME280;45867;52.480;6.056;2023-06-10T04:31:31;101696.25;;;15.29;100.00
60015;BME280;45867;52.480;6.056;2023-06-10T04:33:57;101697.84;;;15.30;100.00
60015;BME280;45867;52.480;6.056;2023-06-10T04:36:22;101699.16;;;15.33;100.00
60015;BME280;45867;52.480;6.056;2023-06-10T04:38:48;101685.03;;;15.27;100.00
60015;BME280;45867;52.480;6.056;2023-06-10T04:41:14;101688.75;;;15.37;100.00
60015;BME280;45867;52.480;6.056;2023-06-10T04:43:39;101693.75;;;15.43;100.00
60015;BME280;45867;52.480;6.056;2023-06-10T04:46:04;101692.59;;;15.54;100.00
60015;BME280;45867;52.480;6.056;2023-06-10T04:48:30;101696.84;;;15.61;100.00
60015;BME280;45867;52.480;6.056;2023-06-10T04:50:55;101693.09;;;15.62;100.00
60015;BME280;45867;52.480;6.056;2023-06-10T04:53:22;101703.50;;;15.68;100.00
60015;BME280;45867;52.480;6.056;2023-06-10T04:55:47;101701.84;;;15.78;100.00
60015;BME280;45867;52.480;6.056;2023-06-10T04:58:13;101705.22;;;15.88;100.00
60015;BME280;45867;52.480;6.056;2023-06-10T05:00:39;101704.66;;;15.91;100.00
60015;BME280;45867;52.480;6.056;2023-06-10T05:03:04;101701.16;;;15.96;100.00
60015;BME280;45867;52.480;6.056;2023-06-10T05:05:29;101698.72;;;16.00;100.00
60015;BME280;45867;52.480;6.056;2023-06-10T05:07:55;101703.16;;;16.09;100.00
60015;BME280;45867;52.480;6.056;2023-06-10T05:10:20;101700.38;;;16.19;100.00
60015;BME280;45867;52.480;6.056;2023-06-10T05:12:46;101698.00;;;16.18;100.00
60015;BME280;45867;52.480;6.056;2023-06-10T05:15:11;101689.88;;;16.28;100.00
60015;BME280;45867;52.480;6.056;2023-06-10T05:17:36;101696.69;;;16.39;100.00
60015;BME280;45867;52.480;6.056;2023-06-10T05:20:04;101691.59;;;16.43;100.00
60015;BME280;45867;52.480;6.056;2023-06-10T05:22:33;101698.91;;;16.61;100.00
60015;BME280;45867;52.480;6.056;2023-06-10T05:25:02;101697.47;;;16.93;100.00
60015;BME280;45867;52.480;6.056;2023-06-10T05:27:28;101702.84;;;17.31;100.00
60015;BME280;45867;52.480;6.056;2023-06-10T05:29:59;101701.50;;;17.66;100.00
60015;BME280;45867;52.480;6.056;2023-06-10T05:32:25;101700.34;;;18.05;100.00
60015;BME280;45867;52.480;6.056;2023-06-10T05:34:53;101711.19;;;18.14;100.00
60015;BME280;45867;52.480;6.056;2023-06-10T05:40:12;101720.91;;;18.84;100.00
60015;BME280;45867;52.480;6.056;2023-06-10T05:42:37;101710.28;;;18.79;100.00
60015;BME280;45867;52.480;6.056;2023-06-10T05:45:03;101722.47;;;19.13;100.00
60015;BME280;45867;52.480;6.056;2023-06-10T05:47:28;101723.25;;;19.13;100.00
60015;BME280;45867;52.480;6.056;2023-06-10T05:49:57;101734.47;;;19.29;100.00
60015;BME280;45867;52.480;6.056;2023-06-10T05:52:25;101732.22;;;19.45;100.00
60015;BME280;45867;52.480;6.056;2023-06-10T05:54:53;101728.00;;;19.66;100.00
60015;BME280;45867;52.480;6.056;2023-06-10T05:57:19;101736.25;;;19.92;100.00
60015;BME280;45867;52.480;6.056;2023-06-10T05:59:45;101740.06;;;20.23;100.00
60015;BME280;45867;52.480;6.056;2023-06-10T06:02:10;101737.84;;;20.25;100.00
60015;BME280;45867;52.480;6.056;2023-06-10T06:04:35;101730.41;;;20.22;100.00
60015;BME280;45867;52.480;6.056;2023-06-10T06:07:01;101734.44;;;20.42;100.00
60015;BME280;45867;52.480;6.056;2023-06-10T06:09:26;101735.53;;;20.72;100.00
60015;BME280;45867;52.480;6.056;2023-06-10T06:11:54;101724.16;;;20.92;100.00
60015;BME280;45867;52.480;6.056;2023-06-10T06:14:19;101721.16;;;21.02;100.00
60015;BME280;45867;52.480;6.056;2023-06-10T06:16:45;101735.31;;;21.25;100.00
60015;BME280;45867;52.480;6.056;2023-06-10T06:19:10;101731.53;;;21.70;100.00
60015;BME280;45867;52.480;6.056;2023-06-10T06:21:42;101742.16;;;21.58;100.00
60015;BME280;45867;52.480;6.056;2023-06-10T06:24:14;101729.16;;;21.77;100.00
60015;BME280;45867;52.480;6.056;2023-06-10T06:26:40;101726.88;;;21.88;100.00
60015;BME280;45867;52.480;6.056;2023-06-10T06:29:05;101735.44;;;21.90;100.00
60015;BME280;45867;52.480;6.056;2023-06-10T06:31:31;101743.38;;;21.95;100.00
60015;BME280;45867;52.480;6.056;2023-06-10T06:33:56;101733.03;;;22.06;100.00
60015;BME280;45867;52.480;6.056;2023-06-10T06:36:24;101729.63;;;22.35;100.00
60015;BME280;45867;52.480;6.056;2023-06-10T06:38:49;101740.25;;;22.70;100.00
60015;BME280;45867;52.480;6.056;2023-06-10T06:41:15;101733.75;;;22.71;100.00
60015;BME280;45867;52.480;6.056;2023-06-10T06:43:40;101743.19;;;22.86;100.00
60015;BME280;45867;52.480;6.056;2023-06-10T06:46:07;101745.25;;;23.18;100.00
60015;BME280;45867;52.480;6.056;2023-06-10T06:48:32;101748.59;;;23.57;100.00
60015;BME280;45867;52.480;6.056;2023-06-10T06:50:58;101742.34;;;23.44;100.00
60015;BME280;45867;52.480;6.056;2023-06-10T06:53:23;101745.91;;;23.57;100.00
60015;BME280;45867;52.480;6.056;2023-06-10T06:55:48;101749.72;;;23.77;100.00
60015;BME280;45867;52.480;6.056;2023-06-10T06:58:14;101751.66;;;23.89;100.00
60015;BME280;45867;52.480;6.056;2023-06-10T07:00:43;101738.09;;;23.77;100.00
60015;BME280;45867;52.480;6.056;2023-06-10T07:03:09;101741.31;;;24.03;100.00
60015;BME280;45867;52.480;6.056;2023-06-10T07:05:34;101740.03;;;24.46;100.00
60015;BME280;45867;52.480;6.056;2023-06-10T07:08:00;101745.66;;;24.90;100.00
60015;BME280;45867;52.480;6.056;2023-06-10T07:10:28;101741.31;;;25.26;100.00
60015;BME280;45867;52.480;6.056;2023-06-10T07:12:56;101747.69;;;25.46;100.00
60015;BME280;45867;52.480;6.056;2023-06-10T07:15:21;101740.00;;;24.95;100.00
60015;BME280;45867;52.480;6.056;2023-06-10T07:17:47;101740.34;;;25.46;100.00
60015;BME280;45867;52.480;6.056;2023-06-10T07:20:12;101749.78;;;26.09;100.00
60015;BME280;45867;52.480;6.056;2023-06-10T07:22:39;101751.16;;;26.34;100.00
60015;BME280;45867;52.480;6.056;2023-06-10T07:25:08;101739.19;;;26.35;100.00
60015;BME280;45867;52.480;6.056;2023-06-10T07:27:33;101739.56;;;26.85;100.00
60015;BME280;45867;52.480;6.056;2023-06-10T07:30:01;101746.22;;;26.52;100.00
60015;BME280;45867;52.480;6.056;2023-06-10T07:32:26;101741.91;;;26.35;100.00
60015;BME280;45867;52.480;6.056;2023-06-10T07:34:52;101754.16;;;26.29;100.00
60015;BME280;45867;52.480;6.056;2023-06-10T07:37:20;101747.94;;;26.29;100.00
60015;BME280;45867;52.480;6.056;2023-06-10T07:39:46;101755.09;;;26.85;100.00
60015;BME280;45867;52.480;6.056;2023-06-10T07:42:11;101745.72;;;27.37;100.00
60015;BME280;45867;52.480;6.056;2023-06-10T07:44:36;101750.38;;;27.56;98.33
60015;BME280;45867;52.480;6.056;2023-06-10T07:47:02;101762.78;;;28.19;96.18
60015;BME280;45867;52.480;6.056;2023-06-10T07:49:27;101769.13;;;28.26;90.87
60015;BME280;45867;52.480;6.056;2023-06-10T07:51:54;101778.19;;;27.88;91.63
60015;BME280;45867;52.480;6.056;2023-06-10T07:54:20;101765.50;;;27.96;90.79
60015;BME280;45867;52.480;6.056;2023-06-10T07:56:45;101773.91;;;28.33;91.52
60015;BME280;45867;52.480;6.056;2023-06-10T07:59:11;101771.88;;;28.76;90.35
60015;BME280;45867;52.480;6.056;2023-06-10T08:01:36;101768.91;;;28.88;93.11
60015;BME280;45867;52.480;6.056;2023-06-10T08:04:04;101762.81;;;28.98;87.51
60015;BME280;45867;52.480;6.056;2023-06-10T08:06:29;101752.63;;;29.22;88.06
60015;BME280;45867;52.480;6.056;2023-06-10T08:08:55;101766.97;;;29.15;84.58
60015;BME280;45867;52.480;6.056;2023-06-10T08:11:20;101762.16;;;29.05;88.16
60015;BME280;45867;52.480;6.056;2023-06-10T08:13:46;101769.94;;;29.33;86.67
60015;BME280;45867;52.480;6.056;2023-06-10T08:16:11;101763.94;;;29.92;82.96
60015;BME280;45867;52.480;6.056;2023-06-10T08:18:36;101767.13;;;30.01;79.31
60015;BME280;45867;52.480;6.056;2023-06-10T08:21:02;101756.41;;;30.22;80.06
60015;BME280;45867;52.480;6.056;2023-06-10T08:23:27;101762.09;;;30.51;79.08
60015;BME280;45867;52.480;6.056;2023-06-10T08:25:52;101765.22;;;31.19;76.89
60015;BME280;45867;52.480;6.056;2023-06-10T08:28:18;101770.03;;;31.44;73.35
60015;BME280;45867;52.480;6.056;2023-06-10T08:30:43;101773.75;;;31.03;72.15
60015;BME280;45867;52.480;6.056;2023-06-10T08:33:09;101765.63;;;31.32;69.60
60015;BME280;45867;52.480;6.056;2023-06-10T08:35:34;101767.25;;;31.40;72.34
60015;BME280;45867;52.480;6.056;2023-06-10T08:37:59;101771.66;;;31.88;64.29
60015;BME280;45867;52.480;6.056;2023-06-10T08:40:25;101764.94;;;30.69;67.91
60015;BME280;45867;52.480;6.056;2023-06-10T08:43:07;101768.81;;;30.64;66.99
60015;BME280;45867;52.480;6.056;2023-06-10T08:45:35;101759.13;;;30.78;72.99
60015;BME280;45867;52.480;6.056;2023-06-10T08:48:05;101770.31;;;30.58;74.48
60015;BME280;45867;52.480;6.056;2023-06-10T08:50:37;101781.09;;;30.88;73.74
60015;BME280;45867;52.480;6.056;2023-06-10T08:53:05;101780.59;;;31.52;63.91
60015;BME280;45867;52.480;6.056;2023-06-10T08:55:38;101776.78;;;30.87;66.96
60015;BME280;45867;52.480;6.056;2023-06-10T08:58:06;101777.00;;;31.30;64.82
60015;BME280;45867;52.480;6.056;2023-06-10T09:00:33;101775.94;;;31.60;60.56
60015;BME280;45867;52.480;6.056;2023-06-10T09:02:59;101773.47;;;31.30;61.94
60015;BME280;45867;52.480;6.056;2023-06-10T09:05:26;101779.09;;;31.76;61.63
60015;BME280;45867;52.480;6.056;2023-06-10T09:07:52;101776.78;;;32.32;64.06
60015;BME280;45867;52.480;6.056;2023-06-10T09:10:19;101768.81;;;33.13;58.27
60015;BME280;45867;52.480;6.056;2023-06-10T09:12:44;101768.28;;;33.40;49.26
60015;BME280;45867;52.480;6.056;2023-06-10T09:15:10;101765.09;;;34.04;50.24
60015;BME280;45867;52.480;6.056;2023-06-10T09:17:37;101763.34;;;34.28;47.38
60015;BME280;45867;52.480;6.056;2023-06-10T09:20:06;101761.88;;;34.20;49.26
60015;BME280;45867;52.480;6.056;2023-06-10T09:22:33;101760.16;;;33.85;47.99
60015;BME280;45867;52.480;6.056;2023-06-10T09:25:13;101761.34;;;33.84;46.30
60015;BME280;45867;52.480;6.056;2023-06-10T09:27:45;101769.34;;;33.67;46.07
60015;BME280;45867;52.480;6.056;2023-06-10T09:30:33;101764.13;;;33.80;46.93
60015;BME280;45867;52.480;6.056;2023-06-10T09:33:09;101760.28;;;34.22;47.34
60015;BME280;45867;52.480;6.056;2023-06-10T09:35:34;101754.84;;;34.91;42.65
60015;BME280;45867;52.480;6.056;2023-06-10T09:38:00;101757.75;;;34.39;43.80
60015;BME280;45867;52.480;6.056;2023-06-10T09:40:27;101762.91;;;35.05;40.39
60015;BME280;45867;52.480;6.056;2023-06-10T09:42:55;101761.31;;;34.77;40.79
60015;BME280;45867;52.480;6.056;2023-06-10T09:45:21;101758.38;;;34.54;38.96
60015;BME280;45867;52.480;6.056;2023-06-10T09:47:47;101757.94;;;34.62;41.55
60015;BME280;45867;52.480;6.056;2023-06-10T09:50:13;101756.97;;;35.10;41.32
60015;BME280;45867;52.480;6.056;2023-06-10T09:52:38;101752.84;;;36.04;39.27
60015;BME280;45867;52.480;6.056;2023-06-10T09:55:08;101757.19;;;36.28;37.34
60015;BME280;45867;52.480;6.056;2023-06-10T09:57:34;101754.63;;;36.61;34.63
60015;BME280;45867;52.480;6.056;2023-06-10T10:00:05;101747.72;;;36.49;35.13
60015;BME280;45867;52.480;6.056;2023-06-10T10:02:30;101757.25;;;36.68;32.65
60015;BME280;45867;52.480;6.056;2023-06-10T10:05:02;101756.00;;;36.49;33.00
60015;BME280;45867;52.480;6.056;2023-06-10T10:07:29;101758.81;;;36.89;33.50
60015;BME280;45867;52.480;6.056;2023-06-10T10:09:54;101762.72;;;37.28;33.21
60015;BME280;45867;52.480;6.056;2023-06-10T10:12:21;101760.13;;;37.73;32.28
60015;BME280;45867;52.480;6.056;2023-06-10T10:14:47;101756.22;;;37.71;32.74
60015;BME280;45867;52.480;6.056;2023-06-10T10:17:14;101748.44;;;38.86;29.45
60015;BME280;45867;52.480;6.056;2023-06-10T10:19:50;101752.38;;;38.14;28.72
60015;BME280;45867;52.480;6.056;2023-06-10T10:22:21;101750.59;;;37.91;30.54
60015;BME280;45867;52.480;6.056;2023-06-10T10:24:51;101755.44;;;37.54;28.86
60015;BME280;45867;52.480;6.056;2023-06-10T10:27:28;101745.75;;;37.62;29.82
60015;BME280;45867;52.480;6.056;2023-06-10T10:29:58;101735.66;;;37.56;30.52
60015;BME280;45867;52.480;6.056;2023-06-10T10:32:43;101730.22;;;37.16;30.21
60015;BME280;45867;52.480;6.056;2023-06-10T10:35:16;101727.34;;;37.88;30.23
60015;BME280;45867;52.480;6.056;2023-06-10T10:37:43;101732.06;;;38.50;28.73
60015;BME280;45867;52.480;6.056;2023-06-10T10:40:10;101741.59;;;37.70;31.32
60015;BME280;45867;52.480;6.056;2023-06-10T10:42:36;101729.59;;;38.10;29.28
60015;BME280;45867;52.480;6.056;2023-06-10T10:45:02;101733.16;;;37.61;30.46
60015;BME280;45867;52.480;6.056;2023-06-10T10:47:29;101723.56;;;36.53;29.30
60015;BME280;45867;52.480;6.056;2023-06-10T10:49:56;101720.41;;;36.95;30.46
60015;BME280;45867;52.480;6.056;2023-06-10T10:52:24;101732.19;;;37.51;30.79
60015;BME280;45867;52.480;6.056;2023-06-10T10:54:53;101721.47;;;37.70;30.52
60015;BME280;45867;52.480;6.056;2023-06-10T10:57:23;101722.19;;;38.91;27.39
60015;BME280;45867;52.480;6.056;2023-06-10T11:04:57;101710.91;;;37.48;28.33
60015;BME280;45867;52.480;6.056;2023-06-10T11:07:24;101707.16;;;36.46;30.59
60015;BME280;45867;52.480;6.056;2023-06-10T11:10:06;101710.88;;;36.59;32.46
60015;BME280;45867;52.480;6.056;2023-06-10T11:15:10;101705.38;;;37.81;30.78
60015;BME280;45867;52.480;6.056;2023-06-10T11:17:36;101695.88;;;38.57;30.08
60015;BME280;45867;52.480;6.056;2023-06-10T11:20:01;101692.28;;;38.98;29.17
60015;BME280;45867;52.480;6.056;2023-06-10T11:22:27;101687.63;;;38.11;28.63
60015;BME280;45867;52.480;6.056;2023-06-10T11:24:53;101699.91;;;37.94;28.42
60015;BME280;45867;52.480;6.056;2023-06-10T11:30:18;101695.69;;;38.06;28.92
60015;BME280;45867;52.480;6.056;2023-06-10T11:32:45;101689.31;;;38.22;28.85
60015;BME280;45867;52.480;6.056;2023-06-10T11:35:16;101690.81;;;38.39;27.76
60015;BME280;45867;52.480;6.056;2023-06-10T11:37:43;101686.31;;;38.16;27.99
60015;BME280;45867;52.480;6.056;2023-06-10T11:40:09;101695.13;;;37.82;29.62
60015;BME280;45867;52.480;6.056;2023-06-10T11:42:39;101700.09;;;38.61;27.82
60015;BME280;45867;52.480;6.056;2023-06-10T11:45:06;101691.03;;;37.86;29.70
60015;BME280;45867;52.480;6.056;2023-06-10T11:47:33;101678.94;;;38.38;30.41
60015;BME280;45867;52.480;6.056;2023-06-10T11:49:58;101683.63;;;39.22;28.20
60015;BME280;45867;52.480;6.056;2023-06-10T11:52:30;101688.31;;;38.57;26.95
60015;BME280;45867;52.480;6.056;2023-06-10T11:55:03;101684.47;;;37.96;27.75
60015;BME280;45867;52.480;6.056;2023-06-10T11:57:29;101674.13;;;38.13;27.88
60015;BME280;45867;52.480;6.056;2023-06-10T11:59:55;101677.66;;;38.14;29.63
60015;BME280;45867;52.480;6.056;2023-06-10T12:02:20;101669.13;;;38.08;26.21
60015;BME280;45867;52.480;6.056;2023-06-10T12:04:47;101683.03;;;38.63;27.90
60015;BME280;45867;52.480;6.056;2023-06-10T12:07:18;101673.59;;;38.48;26.88
60015;BME280;45867;52.480;6.056;2023-06-10T12:09:44;101673.53;;;38.35;26.05
60015;BME280;45867;52.480;6.056;2023-06-10T12:12:10;101673.38;;;38.55;27.90
60015;BME280;45867;52.480;6.056;2023-06-10T12:14:56;101673.78;;;38.95;25.52
60015;BME280;45867;52.480;6.056;2023-06-10T12:17:42;101677.22;;;38.99;26.19
60015;BME280;45867;52.480;6.056;2023-06-10T12:20:23;101673.06;;;38.24;26.29
60015;BME280;45867;52.480;6.056;2023-06-10T12:22:49;101670.44;;;38.04;26.24
60015;BME280;45867;52.480;6.056;2023-06-10T12:25:14;101657.47;;;37.84;28.76
60015;BME280;45867;52.480;6.056;2023-06-10T12:27:50;101669.81;;;36.98;26.02
60015;BME280;45867;52.480;6.056;2023-06-10T12:30:22;101667.38;;;37.20;26.16
60015;BME280;45867;52.480;6.056;2023-06-10T12:32:48;101662.09;;;37.25;25.97
60015;BME280;45867;52.480;6.056;2023-06-10T12:35:18;101660.28;;;37.68;26.03
60015;BME280;45867;52.480;6.056;2023-06-10T12:38:01;101653.28;;;37.80;23.82
60015;BME280;45867;52.480;6.056;2023-06-10T12:40:31;101658.31;;;37.68;23.68
60015;BME280;45867;52.480;6.056;2023-06-10T12:42:58;101651.09;;;37.87;23.94
60015;BME280;45867;52.480;6.056;2023-06-10T12:45:32;101657.06;;;37.86;23.95
60015;BME280;45867;52.480;6.056;2023-06-10T12:50:30;101653.03;;;37.74;24.98
60015;BME280;45867;52.480;6.056;2023-06-10T12:52:56;101645.34;;;37.94;25.05
60015;BME280;45867;52.480;6.056;2023-06-10T12:55:21;101650.34;;;37.54;25.38
60015;BME280;45867;52.480;6.056;2023-06-10T12:57:50;101643.59;;;36.70;25.48
60015;BME280;45867;52.480;6.056;2023-06-10T13:00:17;101654.94;;;37.28;25.54
60015;BME280;45867;52.480;6.056;2023-06-10T13:02:43;101638.59;;;36.64;25.00